createdAt,value
2022-08-25T00:01:31.768Z,10.50
2022-08-25T00:04:01.797Z,13.60
2022-08-25T00:06:30.468Z,8.50
2022-08-25T00:08:59.962Z,16.47
2022-08-25T00:11:31.019Z,8.47
2022-08-25T00:14:00.892Z,15.93
2022-08-25T00:16:31.406Z,8.87
2022-08-25T00:19:01.269Z,11.13
2022-08-25T00:21:31.768Z,9.93
2022-08-25T00:24:02.198Z,13.53
2022-08-25T00:26:32.172Z,9.80
2022-08-25T00:29:01.688Z,10.00
2022-08-25T00:31:37.665Z,11.87
2022-08-25T00:34:08.253Z,16.03
2022-08-25T00:36:36.829Z,7.93
2022-08-25T00:39:06.225Z,11.43
2022-08-25T00:41:36.193Z,14.40
2022-08-25T00:44:07.172Z,10.37
2022-08-25T00:46:37.482Z,9.90
2022-08-25T00:49:07.508Z,10.30
2022-08-25T00:51:38.710Z,12.50
2022-08-25T00:54:07.645Z,11.83
2022-08-25T00:56:37.530Z,8.40
2022-08-25T00:59:06.240Z,11.20
2022-08-25T01:01:34.855Z,12.30
2022-08-25T01:04:03.876Z,9.40
2022-08-25T01:06:32.497Z,18.93
2022-08-25T01:09:01.055Z,8.37
2022-08-25T01:11:29.581Z,9.80
2022-08-25T01:14:03.174Z,10.20
2022-08-25T01:16:31.709Z,9.63
2022-08-25T01:19:00.563Z,9.23
2022-08-25T01:21:31.146Z,14.30
2022-08-25T01:24:00.339Z,20.17
2022-08-25T01:26:31.060Z,13.63
2022-08-25T01:29:17.532Z,10.53
2022-08-25T01:31:46.231Z,12.90
2022-08-25T01:34:16.619Z,12.60
2022-08-25T01:36:46.541Z,9.20
2022-08-25T01:39:15.288Z,13.43
2022-08-25T01:41:51.410Z,11.83
2022-08-25T01:44:20.304Z,8.60
2022-08-25T01:46:48.889Z,9.80
2022-08-25T01:49:17.433Z,11.77
2022-08-25T01:51:52.722Z,11.00
2022-08-25T01:54:21.325Z,9.33
2022-08-25T01:56:49.939Z,9.23
2022-08-25T01:59:23.975Z,8.70
2022-08-25T02:01:59.721Z,14.27
2022-08-25T02:04:32.405Z,17.43
2022-08-25T02:07:02.561Z,13.10
2022-08-25T02:09:31.618Z,11.07
2022-08-25T02:12:00.205Z,11.07
2022-08-25T02:14:28.822Z,17.03
2022-08-25T02:16:57.876Z,15.00
2022-08-25T02:19:27.100Z,15.13
2022-08-25T02:21:55.751Z,12.53
2022-08-25T02:24:26.038Z,16.47
2022-08-25T02:26:55.176Z,18.47
2022-08-25T02:29:23.723Z,18.97
2022-08-25T02:31:52.216Z,14.47
2022-08-25T02:34:20.782Z,13.73
2022-08-25T02:36:49.298Z,12.53
2022-08-25T02:39:17.892Z,16.33
2022-08-25T02:41:47.816Z,13.43
2022-08-25T02:44:16.336Z,23.63
2022-08-25T02:46:44.867Z,18.97
2022-08-25T02:49:13.373Z,19.03
2022-08-25T02:51:42.954Z,18.07
2022-08-25T02:54:11.462Z,12.30
2022-08-25T02:56:41.191Z,14.93
2022-08-25T02:59:11.115Z,16.77
2022-08-25T03:01:39.694Z,16.07
2022-08-25T03:04:08.054Z,21.67
2022-08-25T03:06:36.329Z,15.27
2022-08-25T03:09:04.676Z,12.10
2022-08-25T03:11:32.920Z,17.20
2022-08-25T03:14:01.161Z,18.27
2022-08-25T03:16:31.859Z,24.30
2022-08-25T03:19:01.651Z,14.93
2022-08-25T03:21:30.938Z,18.50
2022-08-25T03:23:59.729Z,18.90
2022-08-25T03:26:53.808Z,21.37
2022-08-25T03:29:22.456Z,14.93
2022-08-25T03:31:52.491Z,11.60
2022-08-25T03:34:21.511Z,12.93
2022-08-25T03:36:52.995Z,20.23
2022-08-25T03:39:22.553Z,15.20
2022-08-25T03:41:51.714Z,23.37
2022-08-25T03:44:20.564Z,21.43
2022-08-25T03:46:52.263Z,19.67
2022-08-25T03:49:23.803Z,11.43
2022-08-25T03:51:53.615Z,13.27
2022-08-25T03:54:24.395Z,20.90
2022-08-25T03:56:52.860Z,20.40
2022-08-25T03:59:21.063Z,15.03
2022-08-25T04:01:54.442Z,14.60
2022-08-25T04:04:24.548Z,16.60
2022-08-25T04:06:53.040Z,20.00
2022-08-25T04:09:21.302Z,15.63
2022-08-25T04:11:53.075Z,20.60
2022-08-25T04:14:22.233Z,25.70
2022-08-25T04:16:50.525Z,16.73
2022-08-25T04:19:18.836Z,14.73
2022-08-25T04:21:48.430Z,22.90
2022-08-25T04:24:16.894Z,16.87
2022-08-25T04:26:47.544Z,22.07
2022-08-25T04:29:17.089Z,21.17
2022-08-25T04:31:46.936Z,18.27
2022-08-25T04:34:30.147Z,20.13
2022-08-25T04:37:02.951Z,18.70
2022-08-25T04:39:31.637Z,25.07
2022-08-25T04:42:00.812Z,19.00
2022-08-25T04:44:29.717Z,18.33
2022-08-25T04:46:57.901Z,20.70
2022-08-25T04:49:26.295Z,15.27
2022-08-25T04:51:54.468Z,24.47
2022-08-25T04:54:24.431Z,17.60
2022-08-25T04:56:54.313Z,18.53
2022-08-25T04:59:29.490Z,16.77
2022-08-25T05:02:02.264Z,21.80
2022-08-25T05:04:31.001Z,22.13
2022-08-25T05:06:59.358Z,17.67
2022-08-25T05:09:29.058Z,22.10
2022-08-25T05:12:01.369Z,20.07
2022-08-25T05:14:30.400Z,22.07
2022-08-25T05:16:58.726Z,28.20
2022-08-25T05:19:27.025Z,23.53
2022-08-25T05:21:57.650Z,23.97
2022-08-25T05:24:29.608Z,31.23
2022-08-25T05:26:58.204Z,28.70
2022-08-25T05:29:27.033Z,25.17
2022-08-25T05:31:55.324Z,28.97
2022-08-25T05:34:24.864Z,25.87
2022-08-25T05:36:53.166Z,30.13
2022-08-25T05:39:21.403Z,30.00
2022-08-25T05:41:51.006Z,33.57
2022-08-25T05:44:21.297Z,35.37
2022-08-25T05:46:51.195Z,40.77
2022-08-25T05:49:19.789Z,37.17
2022-08-25T05:51:48.090Z,37.50
2022-08-25T05:54:16.528Z,49.67
2022-08-25T05:56:45.412Z,55.57
2022-08-25T05:59:15.231Z,53.93
2022-08-25T06:02:01.103Z,44.03
2022-08-25T06:04:29.405Z,55.70
2022-08-25T06:06:57.637Z,48.60
2022-08-25T06:09:26.424Z,55.23
2022-08-25T06:11:55.438Z,45.10
2022-08-25T06:14:25.199Z,48.80
2022-08-25T06:16:53.529Z,53.17
2022-08-25T06:19:23.451Z,57.83
2022-08-25T06:21:56.190Z,52.93
2022-08-25T06:24:24.570Z,51.60
2022-08-25T06:26:52.933Z,39.70
2022-08-25T06:29:21.268Z,42.60
2022-08-25T06:31:53.639Z,41.17
2022-08-25T06:34:24.095Z,43.53
2022-08-25T06:36:53.303Z,49.97
2022-08-25T06:39:21.541Z,40.40
2022-08-25T06:41:53.532Z,54.23
2022-08-25T06:44:22.065Z,45.40
2022-08-25T06:46:51.883Z,45.47
2022-08-25T06:49:20.234Z,48.80
2022-08-25T06:51:48.510Z,49.30
2022-08-25T06:54:16.735Z,55.23
2022-08-25T06:56:45.150Z,45.43
2022-08-25T06:59:13.339Z,41.03
2022-08-25T07:01:41.636Z,41.03
2022-08-25T07:04:13.231Z,41.87
2022-08-25T07:06:41.842Z,39.30
2022-08-25T07:09:10.830Z,42.43
2022-08-25T07:11:39.061Z,43.97
2022-08-25T07:14:08.211Z,47.83
2022-08-25T07:16:36.982Z,34.33
2022-08-25T07:19:05.506Z,32.70
2022-08-25T07:21:36.968Z,31.60
2022-08-25T07:24:07.446Z,35.43
2022-08-25T07:26:38.446Z,41.23
2022-08-25T07:29:10.252Z,37.53
2022-08-25T07:31:38.503Z,34.40
2022-08-25T07:34:25.644Z,35.90
2022-08-25T07:36:55.820Z,33.30
2022-08-25T07:39:24.142Z,38.57
2022-08-25T07:41:52.731Z,29.70
2022-08-25T07:44:21.626Z,35.53
2022-08-25T07:46:50.811Z,49.80
2022-08-25T07:49:23.236Z,33.50
2022-08-25T07:52:03.963Z,32.27
2022-08-25T07:54:38.215Z,34.47
2022-08-25T07:57:08.229Z,30.63
2022-08-25T07:59:39.317Z,34.20
2022-08-25T08:02:16.114Z,33.67
2022-08-25T08:04:48.820Z,43.43
2022-08-25T08:07:18.949Z,32.37
2022-08-25T08:09:56.163Z,31.53
2022-08-25T08:12:34.746Z,35.43
2022-08-25T08:15:04.889Z,29.50
2022-08-25T08:17:39.486Z,24.10
2022-08-25T08:20:09.367Z,22.97
2022-08-25T08:22:38.026Z,27.20
2022-08-25T08:25:11.072Z,31.27
2022-08-25T08:27:39.844Z,25.50
2022-08-25T08:30:09.474Z,20.40
2022-08-25T08:33:08.137Z,25.13
2022-08-25T08:35:27.002Z,27.77
2022-08-25T08:37:55.534Z,27.37
2022-08-25T08:40:25.804Z,19.40
2022-08-25T08:43:04.041Z,24.10
2022-08-25T08:45:40.550Z,16.30
2022-08-25T08:48:38.329Z,18.10
2022-08-25T08:51:15.071Z,13.87
2022-08-25T08:53:46.269Z,23.20
2022-08-25T08:56:17.527Z,16.23
2022-08-25T08:58:49.815Z,12.57
2022-08-25T09:01:24.298Z,14.83
2022-08-25T09:03:55.135Z,11.57
2022-08-25T09:06:25.859Z,16.40
2022-08-25T09:08:55.592Z,16.03
2022-08-25T09:11:32.839Z,14.40
2022-08-25T09:14:22.921Z,17.77
2022-08-25T09:17:02.938Z,11.60
2022-08-25T09:19:58.544Z,14.97
2022-08-25T09:22:36.133Z,10.13
2022-08-25T09:25:10.400Z,12.07
2022-08-25T09:27:42.730Z,12.80
2022-08-25T09:30:14.021Z,13.43
2022-08-25T09:32:48.914Z,8.67
2022-08-25T09:35:23.786Z,8.73
2022-08-25T09:37:59.962Z,15.20
2022-08-25T09:40:28.857Z,9.40
2022-08-25T09:42:59.815Z,9.37
2022-08-25T09:45:39.363Z,8.63
2022-08-25T09:48:25.926Z,9.27
2022-08-25T09:50:59.717Z,8.53
2022-08-25T09:53:28.455Z,8.37
2022-08-25T09:56:05.977Z,8.20
2022-08-25T09:58:35.635Z,10.00
2022-08-25T10:01:08.556Z,9.50
2022-08-25T10:03:36.980Z,11.73
2022-08-25T10:06:12.886Z,8.10
2022-08-25T10:08:52.717Z,13.93
2022-08-25T10:11:37.951Z,12.70
2022-08-25T10:14:21.292Z,11.30
2022-08-25T10:16:49.915Z,10.63
2022-08-25T10:19:26.634Z,9.20
2022-08-25T10:22:07.940Z,12.43
2022-08-25T10:24:40.979Z,13.03
2022-08-25T10:27:21.611Z,14.70
2022-08-25T10:30:09.297Z,9.80
2022-08-25T10:32:58.594Z,23.63
2022-08-25T10:35:31.831Z,15.30
2022-08-25T10:38:08.259Z,11.70
2022-08-25T10:40:41.117Z,22.97
2022-08-25T10:43:14.914Z,14.20
2022-08-25T10:45:47.891Z,11.23
2022-08-25T10:48:59.312Z,16.90
2022-08-25T10:51:42.259Z,13.37
2022-08-25T10:54:21.378Z,8.50
2022-08-25T10:57:00.938Z,14.43
2022-08-25T10:59:48.506Z,10.90
2022-08-25T11:02:58.864Z,10.93
2022-08-25T11:05:30.012Z,12.97
2022-08-25T11:08:06.331Z,15.10
2022-08-25T11:10:41.828Z,9.63
2022-08-25T11:13:17.134Z,14.63
2022-08-25T11:16:13.601Z,11.17
2022-08-25T11:18:49.236Z,11.50
2022-08-25T11:21:22.743Z,13.90
2022-08-25T11:23:56.602Z,10.00
2022-08-25T11:26:32.866Z,17.33
2022-08-25T11:29:11.559Z,12.73
2022-08-25T11:31:43.342Z,6.50
2022-08-25T11:34:14.524Z,10.43
2022-08-25T11:36:45.882Z,14.80
2022-08-25T11:39:17.798Z,14.53
2022-08-25T11:41:57.778Z,15.70
2022-08-25T11:44:53.076Z,17.90
2022-08-25T11:47:57.754Z,12.60
2022-08-25T11:50:31.278Z,11.10
2022-08-25T11:53:03.222Z,14.97
2022-08-25T11:55:49.495Z,11.80
2022-08-25T11:58:40.648Z,11.77
2022-08-25T12:01:12.590Z,11.23
2022-08-25T12:04:14.872Z,19.77
2022-08-25T12:07:19.745Z,14.70
2022-08-25T12:10:14.870Z,13.60
2022-08-25T12:13:10.383Z,25.57
2022-08-25T12:16:01.209Z,9.77
2022-08-25T12:18:45.946Z,14.97
2022-08-25T12:21:33.593Z,12.20
2022-08-25T12:24:26.518Z,12.43
2022-08-25T12:26:58.027Z,16.67
2022-08-25T12:29:32.187Z,11.93
2022-08-25T12:32:23.402Z,15.90
2022-08-25T12:35:29.593Z,13.33
2022-08-25T12:38:05.406Z,13.40
2022-08-25T12:40:38.837Z,17.83
2022-08-25T12:43:12.578Z,10.13
2022-08-25T12:45:44.742Z,9.43
2022-08-25T12:48:56.605Z,11.67
2022-08-25T12:51:26.239Z,11.27
2022-08-25T12:53:55.701Z,16.03
2022-08-25T12:56:30.484Z,9.77
2022-08-25T12:59:13.373Z,10.77
2022-08-25T13:02:10.812Z,12.77
2022-08-25T13:05:18.168Z,9.73
2022-08-25T13:08:02.718Z,11.13
2022-08-25T13:10:47.302Z,6.30
2022-08-25T13:13:25.534Z,8.83
2022-08-25T13:16:00.859Z,8.93
2022-08-25T13:18:31.065Z,15.80
2022-08-25T13:21:07.354Z,16.50
2022-08-25T13:23:37.879Z,14.27
2022-08-25T13:26:06.212Z,12.00
2022-08-25T13:28:40.831Z,14.50
2022-08-25T13:31:16.226Z,15.53
2022-08-25T13:33:54.881Z,8.67
2022-08-25T13:36:46.974Z,15.60
2022-08-25T13:39:45.360Z,18.27
2022-08-25T13:42:17.050Z,15.60
2022-08-25T13:44:52.353Z,12.50
2022-08-25T13:47:43.364Z,10.30
2022-08-25T13:50:20.260Z,10.80
2022-08-25T13:52:50.467Z,11.13
2022-08-25T13:55:23.340Z,18.93
2022-08-25T13:57:58.301Z,17.93
2022-08-25T14:00:32.752Z,8.07
2022-08-25T14:03:01.471Z,13.43
2022-08-25T14:05:37.329Z,17.13
2022-08-25T14:08:23.472Z,11.60
2022-08-25T14:11:03.675Z,11.20
2022-08-25T14:13:33.658Z,14.90
2022-08-25T14:16:14.114Z,14.83
2022-08-25T14:18:48.495Z,14.57
2022-08-25T14:21:16.788Z,18.57
2022-08-25T14:23:47.348Z,18.73
2022-08-25T14:26:15.984Z,15.23
2022-08-25T14:28:44.814Z,18.77
2022-08-25T14:31:17.708Z,20.00
2022-08-25T14:33:50.982Z,13.50
2022-08-25T14:36:20.906Z,9.50
2022-08-25T14:38:54.803Z,9.77
2022-08-25T14:41:23.722Z,14.17
2022-08-25T14:43:51.998Z,18.80
2022-08-25T14:46:23.910Z,21.60
2022-08-25T14:48:54.609Z,21.73
2022-08-25T14:51:23.617Z,17.20
2022-08-25T14:53:54.065Z,9.33
2022-08-25T14:56:22.364Z,19.67
2022-08-25T14:58:56.685Z,17.20
2022-08-25T15:01:30.193Z,18.47
2022-08-25T15:04:03.548Z,23.10
2022-08-25T15:06:31.946Z,10.67
2022-08-25T15:09:08.156Z,15.03
2022-08-25T15:11:36.724Z,15.53
2022-08-25T15:14:10.985Z,18.13
2022-08-25T15:16:43.395Z,12.60
2022-08-25T15:19:14.597Z,14.33
2022-08-25T15:21:44.476Z,19.23
2022-08-25T15:24:17.225Z,19.80
2022-08-25T15:29:21.125Z,27.73
2022-08-25T15:31:50.789Z,22.60
2022-08-25T15:34:19.337Z,17.13
2022-08-25T15:36:47.778Z,16.20
2022-08-25T15:39:18.876Z,19.37
2022-08-25T15:41:49.458Z,19.13
2022-08-25T15:44:17.906Z,17.40
2022-08-25T15:46:49.978Z,22.23
2022-08-25T15:49:20.667Z,18.30
2022-08-25T15:51:52.449Z,12.97
2022-08-25T15:54:21.555Z,21.90
2022-08-25T15:56:49.752Z,18.47
2022-08-25T15:59:17.988Z,21.07
2022-08-25T16:01:53.444Z,31.03
2022-08-25T16:04:24.213Z,16.17
2022-08-25T16:06:52.922Z,24.23
2022-08-25T16:09:23.113Z,22.33
2022-08-25T16:11:56.735Z,28.27
2022-08-25T16:14:27.869Z,29.10
2022-08-25T16:16:58.367Z,25.37
2022-08-25T16:19:29.302Z,21.27
2022-08-25T16:21:57.723Z,22.70
2022-08-25T16:24:26.228Z,27.73
2022-08-25T16:27:00.220Z,27.03
2022-08-25T16:29:39.568Z,19.03
2022-08-25T16:32:08.083Z,22.27
2022-08-25T16:34:39.415Z,19.07
2022-08-25T16:37:08.659Z,26.83
2022-08-25T16:39:40.037Z,18.30
2022-08-25T16:42:09.619Z,19.77
2022-08-25T16:44:39.900Z,16.00
2022-08-25T16:47:09.153Z,21.13
2022-08-25T16:49:39.301Z,16.13
2022-08-25T16:52:28.565Z,24.60
2022-08-25T16:55:15.140Z,14.43
2022-08-25T16:57:45.266Z,18.10
2022-08-25T17:00:18.153Z,23.70
2022-08-25T17:02:47.681Z,13.33
2022-08-25T17:05:18.544Z,15.93
2022-08-25T17:08:07.751Z,17.97
2022-08-25T17:10:37.889Z,24.23
2022-08-25T17:13:06.124Z,21.97
2022-08-25T17:15:34.366Z,17.47
2022-08-25T17:18:02.711Z,24.60
2022-08-25T17:20:34.649Z,29.80
2022-08-25T17:23:03.373Z,16.50
2022-08-25T17:25:43.124Z,19.40
2022-08-25T17:28:12.987Z,19.53
2022-08-25T17:30:41.972Z,18.87
2022-08-25T17:33:10.188Z,17.47
2022-08-25T17:35:41.449Z,19.23
2022-08-25T17:38:09.634Z,19.63
2022-08-25T17:40:38.293Z,20.90
2022-08-25T17:43:09.184Z,17.07
2022-08-25T17:45:38.078Z,23.87
2022-08-25T17:48:08.659Z,18.30
2022-08-25T17:50:37.463Z,9.40
2022-08-25T17:53:09.359Z,19.60
2022-08-25T17:55:38.051Z,24.60
2022-08-25T17:58:06.409Z,24.33
2022-08-25T18:00:36.428Z,13.50
2022-08-25T18:03:06.740Z,18.83
2022-08-25T18:05:35.406Z,13.27
2022-08-25T18:08:04.390Z,25.57
2022-08-25T18:10:40.170Z,14.70
2022-08-25T18:13:08.445Z,17.57
2022-08-25T18:15:36.694Z,13.87
2022-08-25T18:18:05.498Z,16.07
2022-08-25T18:20:34.002Z,15.37
2022-08-25T18:23:05.813Z,11.37
2022-08-25T18:25:41.712Z,16.50
2022-08-25T18:28:10.457Z,15.90
2022-08-25T18:30:39.079Z,16.80
2022-08-25T18:33:07.435Z,20.60
2022-08-25T18:35:35.993Z,14.20
2022-08-25T18:38:24.017Z,15.93
2022-08-25T18:40:58.684Z,15.93
2022-08-25T18:43:28.125Z,23.93
2022-08-25T18:46:00.173Z,21.83
2022-08-25T18:48:28.442Z,16.23
2022-08-25T18:50:56.715Z,19.90
2022-08-25T18:53:30.484Z,21.53
2022-08-25T18:56:08.083Z,22.10
2022-08-25T18:58:37.462Z,14.33
2022-08-25T19:01:06.229Z,29.47
2022-08-25T19:03:34.705Z,16.17
2022-08-25T19:06:03.631Z,27.27
2022-08-25T19:08:32.630Z,14.20
2022-08-25T19:11:00.884Z,23.90
2022-08-25T19:13:30.509Z,16.00
2022-08-25T19:15:59.471Z,16.67
2022-08-25T19:18:29.150Z,9.03
2022-08-25T19:20:59.247Z,14.40
2022-08-25T19:23:27.705Z,15.90
2022-08-25T19:25:56.183Z,14.10
2022-08-25T19:28:26.367Z,10.27
2022-08-25T19:30:56.027Z,16.60
2022-08-25T19:33:42.474Z,15.97
2022-08-25T19:36:12.542Z,15.50
2022-08-25T19:38:40.763Z,14.27
2022-08-25T19:41:14.188Z,13.33
2022-08-25T19:43:55.198Z,8.93
2022-08-25T19:46:32.693Z,7.23
2022-08-25T19:49:07.127Z,15.53
2022-08-25T19:51:37.197Z,9.73
2022-08-25T19:54:05.964Z,16.70
2022-08-25T19:56:35.146Z,11.13
2022-08-25T19:59:04.859Z,8.90
2022-08-25T20:01:36.136Z,12.37
2022-08-25T20:04:04.947Z,11.13
2022-08-25T20:06:33.214Z,13.73
2022-08-25T20:09:01.503Z,14.13
2022-08-25T20:11:30.036Z,13.50
2022-08-25T20:14:01.700Z,11.20
2022-08-25T20:16:32.484Z,15.50
2022-08-25T20:19:02.194Z,26.83
2022-08-25T20:21:32.014Z,54.40
2022-08-25T20:24:18.555Z,29.13
2022-08-25T20:26:47.106Z,17.37
2022-08-25T20:29:15.391Z,12.33
2022-08-25T20:31:43.792Z,11.47
2022-08-25T20:34:14.901Z,14.23
2022-08-25T20:36:49.951Z,9.70
2022-08-25T20:39:20.209Z,14.17
2022-08-25T20:41:48.758Z,14.63
2022-08-25T20:44:17.378Z,15.17
2022-08-25T20:46:46.011Z,9.03
2022-08-25T20:49:15.762Z,14.03
2022-08-25T20:51:44.074Z,12.27
2022-08-25T20:54:14.464Z,15.00
2022-08-25T20:56:43.120Z,14.77
2022-08-25T20:59:11.655Z,15.77
2022-08-25T21:01:41.358Z,17.03
2022-08-25T21:04:11.542Z,12.73
2022-08-25T21:06:44.320Z,13.93
2022-08-25T21:09:15.719Z,13.13
2022-08-25T21:11:44.952Z,14.90
2022-08-25T21:14:13.378Z,14.93
2022-08-25T21:16:46.298Z,15.33
2022-08-25T21:19:16.271Z,14.10
2022-08-25T21:21:46.039Z,16.20
2022-08-25T21:24:14.878Z,10.03
2022-08-25T21:26:48.893Z,12.90
2022-08-25T21:29:17.621Z,11.23
2022-08-25T21:31:46.478Z,19.50
2022-08-25T21:34:17.139Z,11.60
2022-08-25T21:36:48.174Z,20.00
2022-08-25T21:39:16.548Z,12.77
2022-08-25T21:41:45.626Z,13.93
2022-08-25T21:44:14.292Z,11.50
2022-08-25T21:46:51.221Z,11.90
2022-08-25T21:49:23.311Z,11.20
2022-08-25T21:52:02.400Z,11.50
2022-08-25T21:54:33.426Z,11.40
2022-08-25T21:57:05.645Z,8.90
2022-08-25T21:59:37.069Z,13.93
2022-08-25T22:02:07.441Z,13.83
2022-08-25T22:04:36.343Z,17.90
2022-08-25T22:07:06.347Z,12.10
2022-08-25T22:09:35.423Z,13.13
2022-08-25T22:12:04.051Z,16.03
2022-08-25T22:14:32.467Z,14.83
2022-08-25T22:17:01.002Z,13.23
2022-08-25T22:19:29.468Z,13.60
2022-08-25T22:21:57.909Z,10.20
2022-08-25T22:24:28.555Z,9.77
2022-08-25T22:26:57.082Z,13.43
2022-08-25T22:29:26.696Z,10.43
2022-08-25T22:32:00.908Z,19.60
2022-08-25T22:34:32.457Z,13.30
2022-08-25T22:37:01.100Z,15.60
2022-08-25T22:39:30.891Z,13.17
2022-08-25T22:41:59.108Z,17.70
2022-08-25T22:44:28.381Z,11.13
2022-08-25T22:46:56.618Z,13.30
2022-08-25T22:49:24.844Z,11.93
2022-08-25T22:51:55.139Z,13.80
2022-08-25T22:54:23.942Z,13.70
2022-08-25T22:56:55.097Z,12.00
2022-08-25T22:59:23.326Z,17.50
2022-08-25T23:01:54.714Z,11.40
2022-08-25T23:04:23.143Z,14.77
2022-08-25T23:06:53.423Z,14.57
2022-08-25T23:09:22.245Z,18.43
2022-08-25T23:11:54.493Z,10.70
2022-08-25T23:14:22.793Z,15.33
2022-08-25T23:16:51.142Z,16.43
2022-08-25T23:19:19.804Z,12.93
2022-08-25T23:22:05.472Z,16.10
2022-08-25T23:24:34.009Z,21.43
2022-08-25T23:27:04.907Z,15.90
2022-08-25T23:29:34.239Z,17.53
2022-08-25T23:32:03.715Z,17.00
2022-08-25T23:34:33.837Z,17.33
2022-08-25T23:37:02.284Z,17.23
2022-08-25T23:39:30.560Z,14.83
2022-08-25T23:41:59.240Z,13.10
2022-08-25T23:44:29.739Z,15.30
2022-08-25T23:46:58.017Z,12.80
2022-08-25T23:49:26.254Z,26.73
2022-08-25T23:51:56.161Z,12.13
2022-08-25T23:54:31.272Z,19.60
2022-08-25T23:57:00.853Z,18.97
2022-08-25T23:59:32.249Z,26.37
